Time;durP1;ratioP1;P1;durP2;ratioP2;P2;SDS_P1;SDS_P2;PMS_P1;PMS_P2;Temp;Humidity;BMP_temperature;BMP_pressure;BME280_temperature;BME280_humidity;BME280_pressure;Samples;Min_cycle;Max_cycle;Signal;HPM_P1;HPM_P2
2022/06/09 00:00:15;;;;;;;36.97;4.20;;;;;;;16.32;82.84;92892.69;5093037;28;20038;-36
2022/06/09 00:02:42;;;;;;;3.83;2.08;;;;;;;16.23;82.66;92892.75;5092641;28;20497;-35
2022/06/09 00:05:09;;;;;;;11.48;2.42;;;;;;;16.37;82.57;92896.44;5091459;28;20035;-36
2022/06/09 00:07:35;;;;;;;3.33;1.65;;;;;;;16.37;81.95;92891.59;5091697;28;20027;-36
2022/06/09 00:10:13;;;;;;;2.30;1.60;;;;;;;16.38;81.82;92876.34;5092902;28;20050;-35
2022/06/09 00:12:39;;;;;;;8.60;2.72;;;;;;;16.59;81.60;92887.44;5090999;28;20035;-35
2022/06/09 00:15:09;;;;;;;1.70;1.60;;;;;;;16.61;81.10;92870.84;5092723;28;20024;-36
2022/06/09 00:17:34;;;;;;;4.78;1.83;;;;;;;16.62;80.71;92877.91;5092341;28;20073;-35
2022/06/09 00:20:00;;;;;;;3.90;2.38;;;;;;;16.61;81.22;92876.44;5092718;28;20481;-36
2022/06/09 00:22:25;;;;;;;12.38;2.25;;;;;;;16.55;81.38;92872.53;5092556;28;20436;-36
2022/06/09 00:24:51;;;;;;;3.70;2.35;;;;;;;16.36;82.81;92872.69;5092237;28;20024;-36
2022/06/09 00:27:16;;;;;;;2.67;2.45;;;;;;;16.44;83.10;92873.19;5092366;28;20130;-35
2022/06/09 00:29:42;;;;;;;2.30;2.10;;;;;;;16.43;84.27;92866.19;5092444;28;20032;-36
2022/06/09 00:32:08;;;;;;;4.47;1.90;;;;;;;16.50;84.66;92877.13;5092419;28;20080;-36
2022/06/09 00:34:34;;;;;;;4.35;2.72;;;;;;;16.51;84.50;92861.88;5092028;28;20028;-37
2022/06/09 00:37:00;;;;;;;12.55;3.40;;;;;;;16.55;83.91;92869.75;5109106;28;20031;-36
2022/06/09 00:39:25;;;;;;;3.65;3.35;;;;;;;16.56;82.90;92865.63;5112551;28;20015;-36
2022/06/09 00:41:51;;;;;;;5.25;3.25;;;;;;;16.57;83.57;92873.38;5112324;28;20129;-36
2022/06/09 00:44:18;;;;;;;6.20;2.30;;;;;;;16.66;82.82;92863.47;5112147;28;20024;-36
2022/06/09 00:46:46;;;;;;;12.00;3.05;;;;;;;16.60;82.29;92852.69;5112470;28;20023;-36
2022/06/09 00:49:19;;;;;;;12.07;3.13;;;;;;;16.62;82.16;92858.38;5111085;28;20070;-36
2022/06/09 00:51:47;;;;;;;10.15;2.53;;;;;;;16.45;82.63;92857.94;5111166;28;20080;-36
2022/06/09 00:54:17;;;;;;;5.60;2.20;;;;;;;16.44;82.46;92854.44;5112350;28;20404;-35
2022/06/09 00:56:48;;;;;;;3.15;1.90;;;;;;;16.35;82.46;92848.97;5111106;28;20037;-36
2022/06/09 00:59:15;;;;;;;3.95;2.00;;;;;;;16.29;82.43;92854.13;5112331;28;20457;-36
2022/06/09 01:01:42;;;;;;;5.47;2.22;;;;;;;16.27;82.08;92854.75;5111866;28;20024;-36
2022/06/09 01:04:09;;;;;;;6.60;1.80;;;;;;;16.10;82.49;92826.47;5112128;28;20024;-36
2022/06/09 01:06:41;;;;;;;2.97;2.05;;;;;;;16.31;82.55;92851.47;5110537;28;20024;-36
2022/06/09 01:09:16;;;;;;;7.50;2.13;;;;;;;16.16;82.42;92843.53;5110559;28;20034;-36
2022/06/09 01:11:42;;;;;;;4.53;2.53;;;;;;;16.07;82.56;92845.09;5111771;28;20111;-36
2022/06/09 01:14:13;;;;;;;2.55;2.28;;;;;;;16.05;nan;92844.97;5096800;28;20035;-36
2022/06/09 01:16:48;;;;;;;4.43;2.00;;;;;;;16.01;82.62;92855.09;5091316;28;20026;-36
2022/06/09 01:19:40;;;;;;;4.22;2.08;;;;;;;16.02;83.30;92851.75;5091016;28;20056;-36
2022/06/09 01:22:24;;;;;;;4.78;2.25;;;;;;;16.11;82.07;92858.56;5091428;28;20077;-36
2022/06/09 01:25:04;;;;;;;4.95;2.25;;;;;;;16.05;82.43;92847.75;5091464;28;20038;-36
2022/06/09 01:27:40;;;;;;;2.55;1.83;;;;;;;16.08;82.74;92851.41;5091297;28;20412;-36
2022/06/09 01:30:15;;;;;;;6.93;1.92;;;;;;;16.03;82.67;92842.06;5090179;28;20028;-36
2022/06/09 01:32:53;;;;;;;3.15;2.00;;;;;;;16.15;82.72;92847.69;5103364;28;20635;-36
2022/06/09 01:35:32;;;;;;;3.65;2.45;;;;;;;15.97;83.02;92838.88;5110195;28;20024;-36
2022/06/09 01:37:58;;;;;;;2.97;2.67;;;;;;;15.92;83.47;92837.88;5111273;28;20020;-36
2022/06/09 01:40:24;;;;;;;4.47;2.30;;;;;;;16.06;83.35;92835.28;5109916;28;20055;-36
2022/06/09 01:42:52;;;;;;;4.20;2.40;;;;;;;16.15;83.41;92830.97;5111135;28;20079;-36
2022/06/09 01:45:41;;;;;;;7.63;2.63;;;;;;;16.17;83.44;92829.03;5111264;28;20103;-36
2022/06/09 01:48:09;;;;;;;5.85;2.85;;;;;;;16.10;83.27;92827.19;5111091;28;20547;-35
2022/06/09 01:51:00;;;;;;;16.13;3.13;;;;;;;16.15;82.38;92823.34;5110091;28;20460;-36
2022/06/09 01:53:49;;;;;;;4.15;2.90;;;;;;;16.21;82.96;92825.78;5110989;28;20421;-36
2022/06/09 01:56:22;;;;;;;11.68;3.03;;;;;;;16.18;82.85;92824.19;5103411;28;20031;-37
2022/06/09 01:58:53;;;;;;;9.02;2.75;;;;;;;16.13;82.32;92828.06;5109745;28;20110;-36
2022/06/09 02:13:19;;;;;;;7.45;3.05;;;;;;;16.72;80.14;92829.69;5128177;27;20619;-35
2022/06/09 02:15:50;;;;;;;3.33;2.63;;;;;;;16.56;81.05;92812.69;5128767;27;20435;-36
2022/06/09 02:18:22;;;;;;;4.65;4.22;;;;;;;16.58;81.54;92830.28;5127212;28;20690;-36
2022/06/09 02:21:08;;;;;;;7.63;4.88;;;;;;;16.45;81.10;92836.38;5128283;27;20020;-35
2022/06/09 02:23:33;;;;;;;10.73;5.53;;;;;;;16.30;81.35;92827.75;5128278;27;20027;-36
2022/06/09 02:25:59;;;;;;;17.75;6.63;;;;;;;16.21;82.24;92826.50;5128250;27;20019;-36
2022/06/09 02:28:24;;;;;;;26.35;6.75;;;;;;;16.28;81.54;92822.78;5118771;28;20491;-36
2022/06/09 02:30:50;;;;;;;8.70;5.65;;;;;;;16.23;82.08;92823.84;5107685;28;20098;-36
2022/06/09 02:33:16;;;;;;;10.43;6.53;;;;;;;16.17;83.21;92826.25;5107503;28;20023;-36
2022/06/09 02:35:41;;;;;;;27.25;5.88;;;;;;;16.28;82.34;92824.84;5115061;28;20021;-35
2022/06/09 02:38:07;;;;;;;17.08;5.18;;;;;;;16.15;82.04;92805.91;5128205;27;20102;-35
2022/06/09 02:40:33;;;;;;;11.57;4.65;;;;;;;15.93;82.03;92819.88;5128077;27;20098;-36
2022/06/09 02:43:00;;;;;;;11.43;5.32;;;;;;;15.70;82.02;92811.41;5128185;27;20568;-36
2022/06/09 02:45:26;;;;;;;22.92;5.55;;;;;;;15.47;82.99;92824.47;5127748;27;20020;-36
2022/06/09 02:47:51;;;;;;;14.27;5.95;;;;;;;15.64;82.79;92822.16;5128129;27;20106;-36
2022/06/09 02:50:17;;;;;;;9.13;6.00;;;;;;;15.64;81.93;92822.16;5127616;27;20024;-36
2022/06/09 02:52:42;;;;;;;9.50;6.50;;;;;;;15.67;81.87;92817.44;5127724;27;20015;-35
2022/06/09 02:55:09;;;;;;;6.78;5.55;;;;;;;15.73;81.37;92809.47;5127720;27;20028;-36
2022/06/09 02:57:35;;;;;;;20.83;5.85;;;;;;;15.78;82.03;92820.28;5127549;27;20024;-36
2022/06/09 03:00:01;;;;;;;13.75;5.80;;;;;;;15.78;82.92;92820.28;5127592;27;20026;-36
2022/06/09 03:02:26;;;;;;;32.58;5.47;;;;;;;15.74;83.36;92822.09;5127647;27;20023;-36
2022/06/09 03:04:52;;;;;;;43.03;6.75;;;;;;;15.68;84.92;92830.75;5127837;27;20578;-36
2022/06/09 03:07:17;;;;;;;56.05;7.55;;;;;;;15.67;85.43;92842.50;5126141;28;20019;-36
2022/06/09 03:09:43;;;;;;;73.78;8.85;;;;;;;15.69;85.13;92837.06;5127646;27;20027;-37
2022/06/09 03:12:09;;;;;;;50.70;6.03;;;;;;;15.51;84.30;92816.38;5125000;27;20508;-36
2022/06/09 03:14:35;;;;;;;22.88;3.90;;;;;;;15.67;83.85;92842.50;5113093;28;20028;-36
2022/06/09 03:17:00;;;;;;;42.28;5.47;;;;;;;15.64;83.58;92843.66;5113886;28;20110;-36
2022/06/09 03:19:26;;;;;;;36.65;5.40;;;;;;;15.60;84.16;92852.50;5113392;27;20484;-37
2022/06/09 03:21:52;;;;;;;36.88;7.13;;;;;;;15.56;85.26;92857.06;5113752;28;20023;-36
2022/06/09 03:24:17;;;;;;;41.65;5.57;;;;;;;15.60;85.53;92849.72;5113383;28;20035;-36
2022/06/09 03:26:43;;;;;;;14.02;7.97;;;;;;;15.30;84.41;92858.06;5113356;28;20016;-36
2022/06/09 03:29:09;;;;;;;31.98;7.68;;;;;;;15.09;85.17;92853.91;5099116;28;20020;-36
2022/06/09 03:31:34;;;;;;;20.25;8.38;;;;;;;15.29;85.13;92862.19;5092888;28;20027;-36
2022/06/09 03:34:00;;;;;;;27.00;8.75;;;;;;;15.23;85.23;92853.41;5093224;28;20027;-36
2022/06/09 03:36:26;;;;;;;31.00;8.50;;;;;;;15.30;84.57;92872.72;5093071;28;20027;-36
2022/06/09 03:38:52;;;;;;;20.45;7.75;;;;;;;15.17;84.73;92859.31;5093064;28;20024;-35
2022/06/09 03:41:17;;;;;;;25.15;8.07;;;;;;;15.06;85.70;92857.91;5092606;28;20454;-36
2022/06/09 03:43:43;;;;;;;23.30;8.65;;;;;;;14.99;85.60;92858.81;5091451;28;20075;-36
2022/06/09 03:46:11;;;;;;;21.60;7.30;;;;;;;14.94;85.46;92856.34;5092626;28;20039;-35
2022/06/09 03:48:36;;;;;;;7.57;6.47;;;;;;;15.02;85.93;92862.44;5092862;28;20528;-36
2022/06/09 03:51:02;;;;;;;11.65;5.50;;;;;;;15.19;86.06;92865.75;5092827;28;20028;-36
2022/06/09 03:53:27;;;;;;;8.85;6.00;;;;;;;15.36;85.39;92855.69;5092736;28;20115;-36
2022/06/09 03:55:53;;;;;;;6.75;6.03;;;;;;;15.43;85.44;92868.69;5092442;28;20595;-36
2022/06/09 03:58:18;;;;;;;11.80;5.28;;;;;;;15.49;85.12;92860.75;5092322;28;20024;-36
2022/06/09 04:00:43;;;;;;;7.30;4.35;;;;;;;15.59;84.02;92867.00;5092331;28;20020;-36
2022/06/09 04:03:09;;;;;;;5.80;4.95;;;;;;;15.71;84.39;92867.78;5092567;28;20020;-36
2022/06/09 04:05:35;;;;;;;6.47;4.75;;;;;;;15.82;84.05;92867.13;5092236;28;20452;-36
2022/06/09 04:08:01;;;;;;;6.47;4.00;;;;;;;15.73;82.44;92854.00;5090926;28;20031;-36
2022/06/09 04:10:28;;;;;;;8.35;4.15;;;;;;;15.86;82.13;92854.22;5104970;28;20019;-36
2022/06/09 04:12:54;;;;;;;8.07;5.15;;;;;;;16.00;82.82;92868.31;5107830;28;20036;-36
2022/06/09 04:15:20;;;;;;;5.55;4.97;;;;;;;16.12;81.26;92860.75;5092020;28;20024;-36
2022/06/09 04:17:46;;;;;;;8.35;4.35;;;;;;;16.15;81.31;92853.97;5092011;28;20030;-36
2022/06/09 04:20:14;;;;;;;5.35;4.85;;;;;;;16.25;81.53;92860.19;5091923;28;20496;-37
2022/06/09 04:22:40;;;;;;;6.93;5.05;;;;;;;16.32;81.57;92861.31;5092147;28;20027;-36
2022/06/09 04:25:06;;;;;;;5.63;4.72;;;;;;;16.41;81.08;92858.44;5102503;28;20023;-36
2022/06/09 04:27:32;;;;;;;8.35;4.68;;;;;;;16.37;81.26;92860.94;5110963;28;20051;-36
2022/06/09 04:29:57;;;;;;;5.53;4.78;;;;;;;16.50;81.34;92854.81;5112121;28;20058;-36
2022/06/09 04:32:24;;;;;;;5.40;4.80;;;;;;;16.56;80.26;92846.88;5112000;28;20030;-36
2022/06/09 04:34:49;;;;;;;7.55;4.50;;;;;;;16.66;80.02;92852.31;5112020;28;20024;-36
2022/06/09 04:37:15;;;;;;;6.90;3.45;;;;;;;16.77;79.45;92843.25;5112344;28;20035;-36
2022/06/09 04:39:41;;;;;;;4.20;3.80;;;;;;;16.80;78.25;92833.69;5112213;28;20404;-37
2022/06/09 04:42:07;;;;;;;9.38;4.50;;;;;;;16.89;78.17;92837.69;5112061;28;20023;-36
2022/06/09 04:44:33;;;;;;;9.88;4.82;;;;;;;16.98;77.64;92834.78;5112126;28;20436;-36
2022/06/09 04:46:58;;;;;;;5.88;4.13;;;;;;;17.17;77.31;92840.13;5112077;27;20027;-36
2022/06/09 04:49:24;;;;;;;7.93;4.03;;;;;;;17.21;76.58;92834.06;5111746;28;20027;-37
2022/06/09 04:51:49;;;;;;;9.32;4.63;;;;;;;17.21;76.57;92834.81;5112002;28;20027;-37
2022/06/09 04:54:15;;;;;;;5.57;4.53;;;;;;;17.28;77.45;92833.81;5111948;28;20025;-36
2022/06/09 04:56:40;;;;;;;5.43;4.18;;;;;;;17.43;76.53;92832.59;5111600;28;20411;-37
2022/06/09 04:59:05;;;;;;;3.58;3.28;;;;;;;17.58;76.25;92836.97;5111787;28;20023;-36
2022/06/09 05:01:31;;;;;;;5.65;3.33;;;;;;;17.60;75.74;92837.81;5111715;28;20486;-36
2022/06/09 05:03:57;;;;;;;3.80;3.35;;;;;;;17.61;75.28;92844.09;5111745;28;20031;-36
2022/06/09 05:06:24;;;;;;;3.40;3.05;;;;;;;17.61;73.86;92842.06;5111401;27;20016;-36
2022/06/09 05:08:51;;;;;;;3.35;3.05;;;;;;;17.37;73.69;92838.53;5111320;28;20080;-37
2022/06/09 05:11:17;;;;;;;2.97;2.63;;;;;;;17.27;73.80;92840.00;5091242;28;20040;-36
2022/06/09 05:13:42;;;;;;;4.03;3.25;;;;;;;17.28;73.60;92853.34;5101998;28;20043;-36
2022/06/09 05:16:08;;;;;;;4.22;3.83;;;;;;;17.13;74.63;92859.41;5111206;28;20484;-36
2022/06/09 05:18:34;;;;;;;5.25;3.78;;;;;;;17.05;75.21;92858.94;5110339;28;20026;-36
2022/06/09 05:21:00;;;;;;;4.50;4.00;;;;;;;16.88;75.02;92852.97;5102185;28;20508;-36
2022/06/09 05:23:27;;;;;;;4.60;4.05;;;;;;;16.61;77.27;92861.78;5090716;28;20024;-37
2022/06/09 05:25:55;;;;;;;10.07;4.95;;;;;;;16.71;78.23;92856.09;5089860;28;20020;-36
2022/06/09 05:28:22;;;;;;;5.70;4.47;;;;;;;16.71;77.70;92848.47;5090941;28;20031;-36
2022/06/09 05:30:47;;;;;;;6.05;4.22;;;;;;;16.68;78.23;92858.03;5090971;28;20042;-36
2022/06/09 05:33:13;;;;;;;7.40;4.38;;;;;;;16.68;79.02;92855.97;5090646;28;20668;-36
2022/06/09 05:35:39;;;;;;;6.45;4.20;;;;;;;16.66;78.51;92839.13;5090380;28;20416;-36
2022/06/09 05:46:18;;;;;;;6.10;4.43;;;;;;;17.12;78.09;92851.66;5090715;28;20077;-36
2022/06/09 05:48:44;;;;;;;5.68;4.10;;;;;;;17.22;79.02;92855.03;5090491;28;20504;-37
2022/06/09 05:51:14;;;;;;;6.78;4.20;;;;;;;17.17;77.23;92850.56;5090332;28;20059;-36
2022/06/09 05:53:40;;;;;;;5.60;3.92;;;;;;;17.35;77.77;92848.84;5090488;28;20451;-36
2022/06/09 05:56:07;;;;;;;6.70;3.88;;;;;;;17.51;76.10;92849.09;5090358;28;20024;-37
2022/06/09 05:58:33;;;;;;;7.53;3.85;;;;;;;17.56;75.79;92848.03;5090354;28;20504;-36
2022/06/09 06:01:00;;;;;;;7.13;4.15;;;;;;;17.71;75.60;92851.03;5090517;28;20091;-37
2022/06/09 06:03:25;;;;;;;6.28;5.18;;;;;;;17.71;74.73;92842.66;5090289;28;20024;-37
2022/06/09 06:08:35;;;;;;;8.18;5.75;;;;;;;17.85;75.78;92846.25;5090323;28;20573;-37
2022/06/09 06:11:00;;;;;;;7.78;4.97;;;;;;;17.89;74.75;92843.69;5107410;28;20031;-37
2022/06/09 06:13:28;;;;;;;7.03;5.22;;;;;;;17.98;74.88;92842.09;5101774;28;20047;-37
2022/06/09 06:15:54;;;;;;;7.60;6.00;;;;;;;18.06;76.22;92823.00;5090465;28;20024;-36
2022/06/09 06:18:19;;;;;;;6.75;5.93;;;;;;;18.40;75.38;92840.94;5090392;28;20023;-37
2022/06/09 06:20:45;;;;;;;6.80;6.10;;;;;;;18.52;74.36;92847.97;5090072;28;20026;-36
2022/06/09 06:23:10;;;;;;;7.13;6.28;;;;;;;18.63;74.23;92840.84;5090067;28;20027;-37
2022/06/09 06:25:36;;;;;;;8.23;6.72;;;;;;;18.53;73.64;92834.72;5090317;28;20081;-37
2022/06/09 06:28:02;;;;;;;11.80;6.35;;;;;;;18.76;74.25;92840.91;5090022;28;20032;-37
2022/06/09 06:30:27;;;;;;;11.75;7.20;;;;;;;19.00;72.64;92840.75;5090253;28;20020;-37
2022/06/09 06:32:53;;;;;;;8.00;7.22;;;;;;;19.08;72.75;92836.28;5090301;28;20028;-37
2022/06/09 06:35:18;;;;;;;8.43;6.68;;;;;;;19.15;72.23;92840.13;5090152;28;20085;-37
2022/06/09 06:37:44;;;;;;;9.50;7.57;;;;;;;19.28;72.54;92833.84;5090038;28;20047;-37
2022/06/09 06:40:11;;;;;;;8.23;7.43;;;;;;;19.45;71.46;92836.16;5090217;28;20047;-37
2022/06/09 06:42:37;;;;;;;8.93;8.02;;;;;;;19.33;68.97;92839.03;5090088;28;20025;-37
2022/06/09 06:45:03;;;;;;;25.90;9.35;;;;;;;19.42;70.65;92840.94;5089899;28;20036;-37
2022/06/09 06:47:29;;;;;;;11.07;8.80;;;;;;;19.54;70.55;92835.94;5090464;28;20028;-37
2022/06/09 06:49:55;;;;;;;10.10;7.45;;;;;;;19.80;69.75;92833.00;5093704;28;20032;-37
2022/06/09 06:52:21;;;;;;;9.00;7.97;;;;;;;20.01;68.62;92832.69;5093871;28;20145;-37
2022/06/09 06:54:46;;;;;;;8.98;8.07;;;;;;;20.19;67.64;92831.50;5093629;28;20032;-37
2022/06/09 06:57:12;;;;;;;9.68;7.75;;;;;;;20.40;67.29;92838.81;5093528;28;20061;-37
2022/06/09 06:59:37;;;;;;;9.30;8.35;;;;;;;20.47;66.61;92832.16;5093458;28;20020;-37
2022/06/09 07:02:03;;;;;;;14.38;8.52;;;;;;;20.61;66.07;92827.22;5091975;28;20020;-37
2022/06/09 07:04:28;;;;;;;10.25;7.95;;;;;;;20.72;65.30;92826.34;5093316;28;20043;-37
2022/06/09 07:06:56;;;;;;;8.05;7.25;;;;;;;20.65;66.54;92819.00;5093709;28;20028;-38
2022/06/09 07:09:21;;;;;;;8.30;7.40;;;;;;;20.62;65.72;92833.56;5096773;28;20016;-37
2022/06/09 07:11:47;;;;;;;10.38;7.55;;;;;;;20.42;65.41;92832.59;5113447;28;20558;-37
2022/06/09 07:14:12;;;;;;;9.75;7.40;;;;;;;20.35;65.80;92815.50;5113256;28;20031;-38
2022/06/09 07:16:38;;;;;;;7.30;6.57;;;;;;;20.56;65.39;92830.47;5110143;28;20024;-37
2022/06/09 07:19:04;;;;;;;19.27;7.85;;;;;;;20.56;66.79;92831.19;5093446;28;20400;-37
2022/06/09 07:21:30;;;;;;;8.02;7.22;;;;;;;20.46;65.64;92822.31;5092905;28;20032;-38
2022/06/09 07:23:56;;;;;;;22.40;8.02;;;;;;;20.73;64.80;92819.38;5091918;28;20020;-37
2022/06/09 07:26:22;;;;;;;7.65;6.85;;;;;;;21.54;64.12;92812.53;5092909;28;20162;-38
2022/06/09 07:28:48;;;;;;;6.03;5.43;;;;;;;22.46;60.33;92812.88;5093221;28;20101;-38
2022/06/09 07:31:13;;;;;;;6.45;5.85;;;;;;;23.14;58.63;92814.13;5092925;28;20023;-37
2022/06/09 07:33:40;;;;;;;7.38;5.78;;;;;;;23.93;57.50;92818.44;5093092;28;20035;-38
2022/06/09 07:36:13;;;;;;;7.10;5.97;;;;;;;24.20;56.04;92814.44;5093130;28;20483;-38
2022/06/09 07:38:39;;;;;;;6.20;5.60;;;;;;;24.07;55.11;92813.31;5093119;28;20487;-38
2022/06/09 07:41:05;;;;;;;7.22;6.03;;;;;;;23.95;54.60;92812.88;5092983;28;20083;-37
2022/06/09 07:43:31;;;;;;;6.38;5.78;;;;;;;24.19;53.79;92809.47;5092981;28;20102;-37
2022/06/09 07:45:56;;;;;;;6.30;5.30;;;;;;;24.37;53.57;92807.22;5092927;28;20473;-38
2022/06/09 07:48:22;;;;;;;10.35;5.93;;;;;;;24.41;54.10;92810.91;5092855;28;20488;-38
2022/06/09 07:50:49;;;;;;;5.47;4.93;;;;;;;25.31;50.74;92801.75;5092486;28;20458;-38
2022/06/09 07:53:16;;;;;;;8.35;4.72;;;;;;;26.57;48.17;92797.38;5092776;28;20023;-39
2022/06/09 07:55:42;;;;;;;6.82;5.68;;;;;;;27.20;47.32;92791.78;5092475;28;20031;-38
2022/06/09 07:58:07;;;;;;;6.13;5.50;;;;;;;27.41;46.11;92798.66;5092626;28;20028;-38
2022/06/09 08:00:32;;;;;;;7.40;6.15;;;;;;;27.53;45.93;92793.22;5092497;28;20393;-38
2022/06/09 08:02:59;;;;;;;7.65;6.75;;;;;;;28.03;46.07;92788.59;5092576;28;20689;-39
2022/06/09 08:05:26;;;;;;;7.95;5.40;;;;;;;28.60;44.38;92786.78;5090904;28;20040;-39
2022/06/09 08:07:52;;;;;;;6.45;4.43;;;;;;;29.30;41.70;92787.16;5092540;28;20047;-38
2022/06/09 08:10:20;;;;;;;4.90;4.40;;;;;;;30.33;38.14;92789.91;5103644;28;20531;-38
2022/06/09 08:12:47;;;;;;;;;;;;;;;31.39;37.59;92792.91;5112076;28;20079;-39
2022/06/09 08:15:12;;;;;;;5.38;4.75;;;;;;;32.14;36.62;92790.44;5112407;28;20009;-39
2022/06/09 08:17:38;;;;;;;4.63;4.22;;;;;;;32.81;35.32;92791.34;5112651;28;20110;-39
2022/06/09 08:20:05;;;;;;;7.95;4.70;;;;;;;33.70;33.64;92789.13;5112399;28;20028;-37
2022/06/09 08:22:32;;;;;;;4.88;4.40;;;;;;;33.97;32.04;92793.34;5112439;28;20020;-38
2022/06/09 08:24:57;;;;;;;4.93;4.53;;;;;;;33.73;31.80;92787.69;5112578;28;20081;-38
2022/06/09 08:27:23;;;;;;;5.25;4.80;;;;;;;33.03;33.96;92779.22;5112239;28;20016;-37
2022/06/09 08:29:49;;;;;;;6.63;5.05;;;;;;;32.17;34.69;92772.63;5112419;28;20023;-37
2022/06/09 08:32:14;;;;;;;5.78;5.13;;;;;;;32.05;36.42;92775.44;5112153;28;20015;-36
2022/06/09 08:34:40;;;;;;;4.07;3.65;;;;;;;32.68;33.32;92772.75;5112279;28;20028;-36
2022/06/09 08:37:05;;;;;;;4.65;4.25;;;;;;;33.16;32.29;92769.19;5112342;28;20028;-38
2022/06/09 08:39:33;;;;;;;6.32;4.60;;;;;;;33.76;32.60;92771.94;5112231;28;20041;-36
2022/06/09 08:42:37;;;;;;;7.30;4.68;;;;;;;34.71;31.03;92760.03;5111901;28;20024;-37
2022/06/09 08:45:05;;;;;;;3.80;3.50;;;;;;;34.19;30.48;92769.63;5111423;28;20043;-37
2022/06/09 08:47:50;;;;;;;;;;;;;;;34.49;31.48;92768.75;5111072;28;20058;-37
2022/06/09 08:50:33;;;;;;;4.78;3.88;;;;;;;34.68;30.93;92762.19;5110576;28;19907;-38
2022/06/09 08:53:05;;;;;;;5.10;3.55;;;;;;;35.15;30.72;92756.81;5110829;28;20385;-38
2022/06/09 08:55:38;;;;;;;6.30;3.45;;;;;;;35.38;29.63;92758.06;5110487;28;20020;-37
2022/06/09 08:58:12;;;;;;;5.65;3.58;;;;;;;36.31;29.92;92754.16;5111874;28;20019;-37
2022/06/09 09:00:42;;;;;;;4.30;2.88;;;;;;;36.83;26.44;92756.28;5110555;28;20415;-38
2022/06/09 09:03:53;;;;;;;3.72;3.40;;;;;;;37.03;27.40;92752.41;5111821;27;20058;-37
2022/06/09 09:06:30;;;;;;;3.45;3.10;;;;;;;37.63;28.11;92750.66;5094905;28;20032;-38
2022/06/09 09:09:15;;;;;;;3.83;2.80;;;;;;;38.06;26.88;92739.75;5109583;28;20583;-37
2022/06/09 09:11:59;;;;;;;4.03;3.60;;;;;;;37.95;25.59;92735.66;5090253;28;20509;-37
2022/06/09 09:14:51;;;;;;;3.38;2.88;;;;;;;38.58;26.15;92726.41;5107577;28;20024;-38
2022/06/09 09:17:42;;;;;;;7.50;3.08;;;;;;;38.88;25.97;92728.59;5103321;28;20511;-38
2022/06/09 09:20:40;;;;;;;3.20;2.53;;;;;;;39.04;24.36;92730.41;5110143;28;20105;-37
2022/06/09 09:23:13;;;;;;;;;;;;;;;38.83;25.12;92723.69;5110569;28;20023;-38
2022/06/09 09:26:05;;;;;;;3.70;2.97;;;;;;;36.96;26.11;92722.31;5110192;28;19911;-38
2022/06/09 09:28:54;;;;;;;4.80;2.60;;;;;;;36.90;26.92;92713.78;5111360;28;20068;-37
2022/06/09 09:31:24;;;;;;;3.67;2.95;;;;;;;36.99;26.46;92712.88;5111007;28;20047;-38
2022/06/09 09:33:50;;;;;;;3.50;3.10;;;;;;;37.82;27.10;92720.06;5111009;28;20102;-37
2022/06/09 09:36:36;;;;;;;3.13;2.83;;;;;;;37.49;25.65;92716.38;5110971;28;20076;-38
2022/06/09 09:39:15;;;;;;;3.45;3.05;;;;;;;35.85;27.09;92723.09;5111019;28;20481;-37
2022/06/09 09:41:41;;;;;;;2.75;2.40;;;;;;;35.15;28.47;92715.94;5109917;28;20023;-37
2022/06/09 09:44:25;;;;;;;10.45;3.17;;;;;;;35.60;30.29;92711.91;5111219;28;20046;-38
2022/06/09 09:46:56;;;;;;;3.28;2.97;;;;;;;36.90;28.29;92714.50;5110836;28;20031;-38
2022/06/09 09:49:31;;;;;;;5.70;2.88;;;;;;;37.29;26.39;92710.94;5109551;28;20114;-38
2022/06/09 09:51:58;;;;;;;6.43;2.97;;;;;;;36.01;27.60;92705.69;5109561;28;20050;-38
2022/06/09 09:54:28;;;;;;;5.65;3.40;;;;;;;35.10;28.64;92706.66;5110703;28;20027;-37
2022/06/09 09:57:18;;;;;;;5.85;2.70;;;;;;;35.35;28.86;92704.25;5110988;28;20027;-37
2022/06/09 09:59:55;;;;;;;5.35;2.60;;;;;;;34.98;28.55;92695.97;5105584;28;20425;-37
2022/06/09 10:08:39;;;;;;;2.85;1.85;;;;;;;36.34;25.00;92687.25;5089588;28;20082;-38
2022/06/09 10:14:47;;;;;;;1.75;1.20;;;;;;;37.60;20.97;92680.16;5110514;28;20051;-38
2022/06/09 10:17:37;;;;;;;4.53;1.23;;;;;;;37.71;20.03;92678.47;5110827;28;20396;-37
2022/06/09 10:20:12;;;;;;;1.15;0.85;;;;;;;37.65;20.04;92681.47;5110514;28;20031;-38
2022/06/09 10:22:38;;;;;;;1.33;0.93;;;;;;;37.54;21.96;92663.69;5111011;28;20027;-38
2022/06/09 10:25:16;;;;;;;2.65;1.60;;;;;;;37.64;21.98;92675.00;5114637;28;20089;-38
2022/06/09 10:27:42;;;;;;;2.13;1.35;;;;;;;37.79;20.40;92670.38;5114528;28;20039;-38
2022/06/09 10:30:10;;;;;;;7.78;1.90;;;;;;;38.40;22.73;92674.91;5113277;28;20024;-37
2022/06/09 10:32:48;;;;;;;1.55;1.20;;;;;;;38.81;21.19;92671.78;5114806;28;20055;-37
2022/06/09 10:35:16;;;;;;;;;;;;;;;38.89;18.50;92677.38;5115013;28;20027;-37
2022/06/09 10:37:56;;;;;;;1.23;1.00;;;;;;;38.77;20.15;92671.91;5114703;28;19908;-38
2022/06/09 10:40:46;;;;;;;3.15;1.50;;;;;;;38.99;20.68;92671.31;5114580;28;20044;-37
2022/06/09 10:43:30;;;;;;;1.42;1.10;;;;;;;39.44;19.75;92668.72;5113124;28;20077;-37
2022/06/09 10:46:19;;;;;;;2.25;1.33;;;;;;;39.28;21.07;92661.22;5113369;28;20035;-38
2022/06/09 10:55:15;;;;;;;4.22;1.40;;;;;;;39.79;20.57;92656.94;5113320;28;20085;-38
2022/06/09 10:57:51;;;;;;;2.13;1.23;;;;;;;39.28;21.41;92658.34;5113224;28;20384;-37
2022/06/09 11:00:23;;;;;;;1.27;1.00;;;;;;;39.24;20.11;92649.06;5114287;28;20031;-37
2022/06/09 11:02:54;;;;;;;1.80;1.20;;;;;;;38.92;18.35;92658.53;5099143;28;20107;-37
2022/06/09 11:05:25;;;;;;;1.20;1.10;;;;;;;38.39;21.57;92638.88;5092541;28;20089;-37
2022/06/09 11:07:54;;;;;;;2.92;1.67;;;;;;;38.18;23.48;92647.25;5092268;28;20082;-37
2022/06/09 11:10:23;;;;;;;2.35;1.98;;;;;;;37.65;23.43;92641.16;5105104;28;20027;-37
2022/06/09 11:12:57;;;;;;;2.53;1.65;;;;;;;36.67;25.51;92635.72;5113237;28;20494;-37
2022/06/09 11:15:23;;;;;;;2.55;1.73;;;;;;;36.06;26.13;92638.09;5113897;28;20498;-36
2022/06/09 11:18:07;;;;;;;3.63;1.70;;;;;;;35.25;25.38;92630.44;5113896;28;20024;-37
2022/06/09 11:20:35;;;;;;;2.05;1.88;;;;;;;34.50;27.47;92632.59;5113857;28;20088;-36
2022/06/09 11:23:11;;;;;;;;;;;;;;;34.22;28.29;92630.63;5114325;28;20012;-37
2022/06/09 11:25:49;;;;;;;4.25;2.50;;;;;;;33.63;29.94;92630.97;5112283;28;19966;-36
2022/06/09 11:28:24;;;;;;;3.95;1.85;;;;;;;33.45;28.03;92627.47;5112549;28;20029;-37
2022/06/09 11:31:11;;;;;;;1.95;1.80;;;;;;;33.11;29.88;92630.44;5113704;28;20043;-37
2022/06/09 11:33:46;;;;;;;1.50;1.40;;;;;;;33.10;26.96;92626.88;5113071;27;20126;-37
2022/06/09 11:36:36;;;;;;;1.85;1.60;;;;;;;32.74;29.27;92629.78;5113260;28;20484;-36
2022/06/09 11:39:28;;;;;;;2.72;1.65;;;;;;;32.32;28.98;92624.78;5113214;28;20062;-37
2022/06/09 11:42:15;;;;;;;3.67;2.60;;;;;;;31.91;27.83;92620.47;5113109;28;20016;-37
2022/06/09 11:44:41;;;;;;;3.42;2.13;;;;;;;31.65;32.97;92628.97;5113190;28;20069;-37
2022/06/09 11:47:16;;;;;;;2.95;1.70;;;;;;;31.51;32.87;92617.53;5111811;28;20023;-38
2022/06/09 11:49:53;;;;;;;2.95;2.20;;;;;;;31.28;35.50;92611.72;5112091;28;20024;-39
2022/06/09 11:52:35;;;;;;;2.17;1.98;;;;;;;31.09;34.22;92607.38;5111780;28;20012;-39
2022/06/09 11:55:16;;;;;;;4.65;1.70;;;;;;;31.13;31.74;92603.81;5112089;28;20027;-39
2022/06/09 11:57:49;;;;;;;1.73;1.63;;;;;;;30.78;30.40;92594.34;5109478;28;20516;-39
2022/06/09 12:00:27;;;;;;;1.73;1.63;;;;;;;30.22;33.87;92600.38;5092431;28;20520;-38
2022/06/09 12:03:20;;;;;;;2.92;2.13;;;;;;;29.93;32.46;92590.88;5092304;28;20509;-38
2022/06/09 12:05:58;;;;;;;4.68;1.85;;;;;;;29.95;35.90;92587.38;5091139;28;20107;-36
2022/06/09 12:08:42;;;;;;;1.77;1.45;;;;;;;30.02;35.07;92583.13;5091086;28;20495;-37
2022/06/09 12:11:14;;;;;;;2.10;1.90;;;;;;;29.84;33.70;92563.06;5110449;28;20531;-36
2022/06/09 12:13:48;;;;;;;1.88;1.77;;;;;;;29.72;34.00;92580.72;5111328;28;20031;-38
2022/06/09 12:16:32;;;;;;;3.05;2.00;;;;;;;29.79;34.30;92576.56;5111178;28;20122;-38
2022/06/09 12:19:13;;;;;;;2.35;1.70;;;;;;;29.82;36.39;92583.69;5109744;28;20020;-39
2022/06/09 12:21:39;;;;;;;3.35;1.80;;;;;;;29.87;35.71;92576.63;5110262;28;20140;-38
2022/06/09 12:24:14;;;;;;;2.10;1.90;;;;;;;29.71;37.38;92573.63;5109811;28;20035;-39
2022/06/09 12:26:39;;;;;;;2.60;1.80;;;;;;;29.61;35.55;92576.34;5109777;28;20062;-38